Time;durP1;ratioP1;P1;durP2;ratioP2;P2;SDS_P1;SDS_P2;PMS_P1;PMS_P2;Temp;Humidity;BMP_temperature;BMP_pressure;BME280_temperature;BME280_humidity;BME280_pressure;Samples;Min_cycle;Max_cycle;Signal;HPM_P1;HPM_P2
2021/08/15 00:00:45;;;;;;;;;14.25;11.50;;;;;30.88;29.58;101228.91;144251;573;131022;-74
2021/08/15 00:03:19;;;;;;;;;8.75;8.75;;;;;30.60;29.58;101222.84;144225;657;132907;-73
2021/08/15 00:05:53;;;;;;;;;10.75;10.00;;;;;30.64;29.43;101217.97;144268;640;131021;-74
2021/08/15 00:08:27;;;;;;;;;10.00;9.50;;;;;30.73;29.42;101225.12;144220;569;132020;-69
2021/08/15 00:11:02;;;;;;;;;9.50;9.50;;;;;30.64;29.69;101224.22;144260;636;131022;-71
2021/08/15 00:13:36;;;;;;;;;10.25;8.75;;;;;30.68;29.65;101222.06;144233;590;132020;-70
2021/08/15 00:16:10;;;;;;;;;11.00;11.00;;;;;30.66;29.83;101219.50;144250;588;132010;-69
2021/08/15 00:18:44;;;;;;;;;10.75;10.75;;;;;30.83;29.86;101219.56;144233;569;132020;-69
2021/08/15 00:21:18;;;;;;;;;12.75;11.00;;;;;30.78;30.02;101224.63;144261;616;131021;-70
2021/08/15 00:23:52;;;;;;;;;8.50;8.50;;;;;30.93;29.72;101222.12;144227;569;132907;-69
2021/08/15 00:26:26;;;;;;;;;15.25;11.75;;;;;30.57;30.32;101215.06;144259;566;132008;-69
2021/08/15 00:29:01;;;;;;;;;11.25;8.50;;;;;30.67;30.22;101218.50;144218;655;132019;-70
2021/08/15 00:31:36;;;;;;;;;12.00;11.75;;;;;30.47;30.36;101217.91;144268;682;131020;-69
2021/08/15 00:34:09;;;;;;;;;10.00;10.00;;;;;30.65;30.21;101211.53;144223;600;132037;-70
2021/08/15 00:36:43;;;;;;;;;10.50;9.50;;;;;30.70;30.35;101222.72;144245;638;132012;-71
2021/08/15 00:39:17;;;;;;;;;10.75;9.00;;;;;30.84;30.30;101213.97;144230;608;131907;-68
2021/08/15 00:41:51;;;;;;;;;13.25;12.00;;;;;30.81;30.32;101221.56;144252;603;131021;-70
2021/08/15 00:44:25;;;;;;;;;12.50;12.50;;;;;30.79;30.18;101216.31;144225;571;131907;-70
2021/08/15 00:47:01;;;;;;;;;10.00;10.00;;;;;30.60;30.33;101219.31;144254;642;131022;-69
2021/08/15 00:49:34;;;;;;;;;9.50;9.50;;;;;30.51;30.85;101218.41;144214;635;132012;-70
2021/08/15 00:52:08;;;;;;;;;11.75;11.75;;;;;30.53;31.04;101214.53;144267;589;131023;-72
2021/08/15 00:54:54;;;;;;;;;12.25;12.25;;;;;30.47;31.21;101226.03;144216;595;132010;-69
2021/08/15 00:57:31;;;;;;;;;10.50;10.50;;;;;30.59;30.60;101225.72;144247;582;132008;-70
2021/08/15 01:00:13;;;;;;;;;13.75;13.50;;;;;30.54;30.38;101215.38;144220;595;132012;-68
2021/08/15 01:02:50;;;;;;;;;12.25;11.25;;;;;30.43;30.65;101226.44;144251;649;132006;-69
2021/08/15 01:05:28;;;;;;;;;9.25;9.25;;;;;30.44;30.85;101215.50;144222;609;131907;-69
2021/08/15 01:08:02;;;;;;;;;12.75;11.00;;;;;30.28;30.96;101218.06;144240;691;131020;-69
2021/08/15 01:10:37;;;;;;;;;14.25;13.50;;;;;30.15;31.30;101218.50;144215;569;132010;-69
2021/08/15 01:13:11;;;;;;;;;11.00;10.75;;;;;30.15;31.53;101221.22;144249;635;132008;-69
2021/08/15 01:15:45;;;;;;;;;8.50;8.25;;;;;30.18;31.50;101219.06;144222;657;131907;-70
2021/08/15 01:18:32;;;;;;;;;10.00;10.00;;;;;30.06;31.79;101214.91;144260;643;132010;-69
2021/08/15 01:21:13;;;;;;;;;12.50;9.50;;;;;30.11;32.21;101223.37;144224;624;131907;-68
2021/08/15 01:23:49;;;;;;;;;11.50;10.75;;;;;30.25;31.87;101219.28;144262;573;132010;-70
2021/08/15 01:26:25;;;;;;;;;12.25;10.00;;;;;30.40;31.72;101219.53;144223;715;132010;-69
2021/08/15 01:28:59;;;;;;;;;9.25;9.25;;;;;30.48;31.65;101219.59;144249;571;132021;-68
2021/08/15 01:31:33;;;;;;;;;13.25;13.00;;;;;30.55;31.30;101223.34;144233;689;131016;-69
2021/08/15 01:34:07;;;;;;;;;12.25;12.25;;;;;30.28;32.03;101215.38;144242;680;132008;-69
2021/08/15 01:36:41;;;;;;;;;10.00;10.00;;;;;30.30;31.73;101221.47;144213;581;132019;-69
2021/08/15 01:39:24;;;;;;;;;12.25;11.25;;;;;30.51;31.65;101219.28;144251;575;132008;-70
2021/08/15 01:41:58;;;;;;;;;12.25;12.25;;;;;30.51;31.64;101221.09;144223;624;132907;-70
2021/08/15 01:44:32;;;;;;;;;15.75;12.25;;;;;30.53;31.99;101216.41;144251;595;132012;-70
2021/08/15 01:47:06;;;;;;;;;12.75;11.25;;;;;30.25;32.29;101213.84;144220;574;132907;-69
2021/08/15 01:49:40;;;;;;;;;13.00;12.25;;;;;30.26;32.33;101222.81;144256;591;131021;-70
2021/08/15 01:52:14;;;;;;;;;10.75;10.50;;;;;30.17;33.02;101222.78;144219;573;131907;-70
2021/08/15 01:54:48;;;;;;;;;15.50;13.50;;;;;30.16;33.02;101229.19;144242;553;132012;-70
2021/08/15 01:57:22;;;;;;;;;14.50;12.50;;;;;30.14;33.06;101214.97;144226;590;131907;-70
2021/08/15 01:59:56;;;;;;;;;13.25;11.25;;;;;30.17;33.54;101217.34;144248;727;131020;-70
2021/08/15 02:02:30;;;;;;;;;13.50;13.00;;;;;30.15;33.67;101222.06;144220;630;132010;-69
2021/08/15 02:05:03;;;;;;;;;13.25;12.75;;;;;30.27;33.41;101221.81;144251;596;132006;-70
2021/08/15 02:07:37;;;;;;;;;14.25;14.00;;;;;30.27;33.45;101230.78;144217;605;132012;-69
2021/08/15 02:10:12;;;;;;;;;11.75;11.50;;;;;30.26;33.87;101229.06;144256;569;132010;-70
2021/08/15 02:12:46;;;;;;;;;15.00;12.50;;;;;30.29;33.59;101222.50;144216;625;132020;-69
2021/08/15 02:15:20;;;;;;;;;13.00;11.50;;;;;30.28;33.64;101224.34;144250;573;132012;-70
2021/08/15 02:17:54;;;;;;;;;12.25;12.25;;;;;30.11;34.26;101227.97;144230;581;132907;-69
2021/08/15 02:20:28;;;;;;;;;10.75;10.75;;;;;29.78;34.89;101239.34;144246;612;132012;-69
2021/08/15 02:23:02;;;;;;;;;13.50;12.00;;;;;29.80;34.97;101240.06;144227;590;132010;-68
2021/08/15 02:25:36;;;;;;;;;11.00;11.00;;;;;29.98;34.44;101231.94;144244;674;132008;-69
2021/08/15 02:28:11;;;;;;;;;13.25;13.25;;;;;29.81;34.47;101239.06;144226;662;131907;-68
2021/08/15 02:30:44;;;;;;;;;13.75;11.25;;;;;29.74;34.60;101240.69;144255;616;132008;-68
2021/08/15 02:33:18;;;;;;;;;10.75;10.75;;;;;29.93;34.11;101233.44;144224;614;132011;-68
2021/08/15 02:35:53;;;;;;;;;13.50;13.50;;;;;29.88;34.49;101242.88;144257;618;131021;-68
2021/08/15 02:38:27;;;;;;;;;12.50;12.50;;;;;29.81;34.36;101240.91;144221;588;131907;-68
2021/08/15 02:41:03;;;;;;;;;11.50;11.50;;;;;29.83;34.20;101234.31;144255;602;132006;-68
2021/08/15 02:43:37;;;;;;;;;14.25;13.00;;;;;29.97;34.31;101234.81;144229;638;132019;-67
2021/08/15 02:46:10;;;;;;;;;14.25;14.25;;;;;30.15;34.37;101240.19;144248;618;131020;-69
2021/08/15 02:48:44;;;;;;;;;12.75;12.00;;;;;30.18;34.13;101240.72;144230;691;131907;-67
2021/08/15 02:51:19;;;;;;;;;12.25;12.00;;;;;29.86;34.96;101246.72;144248;597;131020;-68
2021/08/15 02:53:52;;;;;;;;;12.00;10.25;;;;;29.94;34.34;101240.53;144218;627;132906;-68
2021/08/15 02:56:26;;;;;;;;;13.50;12.75;;;;;30.07;34.29;101246.38;144251;596;132008;-68
2021/08/15 02:59:00;;;;;;;;;10.75;9.00;;;;;30.20;34.41;101246.81;144221;602;132010;-67
2021/08/15 03:01:34;;;;;;;;;13.00;12.75;;;;;30.21;34.38;101248.50;144259;584;132020;-69
2021/08/15 03:04:08;;;;;;;;;13.50;13.50;;;;;30.11;34.17;101238.78;144220;570;132907;-67
2021/08/15 03:06:42;;;;;;;;;10.00;10.00;;;;;30.09;34.59;101251.66;144252;576;131020;-66
2021/08/15 03:09:16;;;;;;;;;11.00;11.00;;;;;30.20;34.43;101245.97;144226;598;131907;-67
2021/08/15 03:11:50;;;;;;;;;11.75;11.25;;;;;30.04;34.37;101252.09;144244;588;132008;-67
2021/08/15 03:14:24;;;;;;;;;12.50;11.75;;;;;29.79;34.93;101253.75;144218;586;132012;-68
2021/08/15 03:16:57;;;;;;;;;11.75;11.75;;;;;29.79;34.67;101251.88;144240;609;131020;-67
2021/08/15 03:19:31;;;;;;;;;14.00;14.00;;;;;29.71;35.10;101259.94;144219;572;132011;-69
2021/08/15 03:22:05;;;;;;;;;11.75;11.75;;;;;29.36;35.52;101261.63;144250;573;132008;-68
2021/08/15 03:24:40;;;;;;;;;13.25;12.00;;;;;29.38;35.57;101265.03;144224;641;131016;-68
2021/08/15 03:27:13;;;;;;;;;15.50;14.75;;;;;29.34;35.50;101259.06;144254;608;131020;-69
2021/08/15 03:29:47;;;;;;;;;15.00;13.00;;;;;29.30;35.72;101257.66;144218;599;132010;-70
2021/08/15 03:32:21;;;;;;;;;12.00;12.00;;;;;29.35;35.37;101262.66;144246;631;132008;-69
2021/08/15 03:34:55;;;;;;;;;14.00;13.00;;;;;29.40;35.59;101256.75;144220;626;132021;-69
2021/08/15 03:37:29;;;;;;;;;15.00;14.00;;;;;29.41;35.65;101263.87;144253;563;132020;-68
2021/08/15 03:40:03;;;;;;;;;11.00;9.00;;;;;29.42;35.64;101263.72;144223;610;132907;-70
2021/08/15 03:42:37;;;;;;;;;13.25;13.25;;;;;29.44;35.70;101267.09;144247;610;131029;-68
2021/08/15 03:45:12;;;;;;;;;14.00;14.00;;;;;29.26;35.68;101263.56;144226;628;131907;-69
2021/08/15 03:47:46;;;;;;;;;13.25;13.25;;;;;29.20;35.90;101263.13;144257;607;131020;-69
2021/08/15 03:50:19;;;;;;;;;15.00;14.00;;;;;29.22;35.97;101265.66;144225;563;131906;-69
2021/08/15 03:52:53;;;;;;;;;16.75;14.50;;;;;29.20;36.16;101268.53;144254;572;131020;-68
2021/08/15 03:55:27;;;;;;;;;13.25;13.25;;;;;29.17;36.07;101265.25;144225;564;132907;-69
2021/08/15 03:58:01;;;;;;;;;15.25;13.00;;;;;29.07;36.33;101268.03;144249;586;131022;-69
2021/08/15 04:00:40;;;;;;;;;13.00;12.00;;;;;28.99;36.77;101270.63;144224;606;132018;-68
2021/08/15 04:03:15;;;;;;;;;12.50;12.50;;;;;29.09;36.39;101273.28;144251;581;131021;-68
2021/08/15 04:05:50;;;;;;;;;15.50;15.50;;;;;28.91;36.61;101276.81;144230;609;132020;-68
2021/08/15 04:08:23;;;;;;;;;15.50;14.00;;;;;29.17;36.21;101276.94;144245;589;132008;-67
2021/08/15 04:10:57;;;;;;;;;13.00;12.75;;;;;29.26;36.04;101274.37;144220;633;132032;-67
2021/08/15 04:13:31;;;;;;;;;16.25;14.00;;;;;29.32;36.22;101266.50;144249;630;132008;-68
2021/08/15 04:16:15;;;;;;;;;15.50;13.00;;;;;29.44;36.06;101269.81;144225;604;131017;-69
2021/08/15 04:18:49;;;;;;;;;17.00;16.00;;;;;29.49;36.07;101270.22;144254;592;131021;-68
2021/08/15 04:21:23;;;;;;;;;16.75;16.00;;;;;29.46;36.40;101270.53;144215;630;132012;-69
2021/08/15 04:23:57;;;;;;;;;14.00;14.00;;;;;29.59;36.50;101274.69;144251;602;131020;-70
2021/08/15 04:26:31;;;;;;;;;15.50;15.00;;;;;29.59;36.48;101272.00;144232;584;131016;-69
2021/08/15 04:29:05;;;;;;;;;14.00;14.00;;;;;29.59;36.64;101275.53;144249;566;132012;-68
2021/08/15 04:31:38;;;;;;;;;15.75;15.75;;;;;29.65;36.79;101269.53;144222;615;132905;-68
2021/08/15 04:34:13;;;;;;;;;16.75;16.75;;;;;29.75;36.87;101268.59;144244;569;132010;-68
2021/08/15 04:36:47;;;;;;;;;16.25;15.25;;;;;29.86;36.97;101271.94;144215;620;132020;-68
2021/08/15 04:39:20;;;;;;;;;20.75;16.75;;;;;29.98;36.51;101275.25;144254;564;131022;-66
2021/08/15 04:41:55;;;;;;;;;18.25;15.75;;;;;29.95;36.53;101272.00;144229;565;132904;-68
2021/08/15 04:44:28;;;;;;;;;19.50;18.75;;;;;29.91;36.42;101271.47;144246;607;131022;-68
2021/08/15 04:47:02;;;;;;;;;18.50;15.50;;;;;29.95;36.46;101274.69;144222;564;131020;-68
2021/08/15 04:49:36;;;;;;;;;15.00;15.00;;;;;30.01;36.75;101272.22;144246;667;132012;-68
2021/08/15 04:52:10;;;;;;;;;21.50;19.00;;;;;30.08;36.54;101271.59;144225;563;132905;-68
2021/08/15 04:54:44;;;;;;;;;18.75;16.75;;;;;30.18;36.52;101269.62;144257;585;131021;-69
2021/08/15 04:57:18;;;;;;;;;20.25;18.75;;;;;30.22;36.44;101271.00;144224;573;131904;-69
2021/08/15 04:59:52;;;;;;;;;15.50;15.25;;;;;30.19;36.03;101271.34;144251;595;131020;-68
2021/08/15 05:02:26;;;;;;;;;15.75;15.75;;;;;30.23;36.34;101288.13;144221;586;131913;-68
2021/08/15 05:05:00;;;;;;;;;15.75;15.50;;;;;30.24;36.59;101278.97;144253;579;132006;-68
2021/08/15 05:07:33;;;;;;;;;15.50;15.50;;;;;30.23;36.58;101282.72;144225;577;131905;-68
2021/08/15 05:10:10;;;;;;;;;14.00;14.00;;;;;30.26;36.61;101277.81;144253;569;131023;-68
2021/08/15 05:12:44;;;;;;;;;21.25;21.25;;;;;30.30;36.40;101283.78;144222;592;132027;-68
2021/08/15 05:15:18;;;;;;;;;18.50;18.50;;;;;30.36;36.01;101283.16;144253;563;131022;-69
2021/08/15 05:17:51;;;;;;;;;17.25;15.25;;;;;30.37;36.24;101292.94;144226;563;132905;-69
2021/08/15 05:20:25;;;;;;;;;21.25;19.75;;;;;30.36;36.75;101292.13;144243;573;132012;-68
2021/08/15 05:22:59;;;;;;;;;16.25;15.25;;;;;30.32;36.46;101285.31;144216;593;132905;-68
2021/08/15 05:25:33;;;;;;;;;21.25;19.00;;;;;30.39;36.79;101293.66;144237;618;131020;-69
2021/08/15 05:28:07;;;;;;;;;20.00;19.25;;;;;30.44;36.68;101294.06;144217;563;132905;-68
2021/08/15 05:30:41;;;;;;;;;14.75;13.75;;;;;30.52;36.42;101301.37;144244;633;132013;-69
2021/08/15 05:33:15;;;;;;;;;17.25;17.25;;;;;30.62;36.25;101299.41;144217;569;132010;-67
2021/08/15 05:35:49;;;;;;;;;29.75;29.25;;;;;30.92;35.30;101293.63;144246;616;132008;-67
2021/08/15 05:38:23;;;;;;;;;32.75;28.50;;;;;31.03;35.36;101301.50;144220;571;132905;-68
2021/08/15 05:40:57;;;;;;;;;25.50;24.50;;;;;31.17;35.55;101306.28;144252;677;131020;-67
2021/08/15 05:43:31;;;;;;;;;28.00;26.75;;;;;31.42;35.25;101297.38;144226;666;131905;-67
2021/08/15 05:46:05;;;;;;;;;28.25;24.50;;;;;31.72;34.33;101294.06;144253;572;132006;-68
2021/08/15 05:48:38;;;;;;;;;25.00;25.00;;;;;31.91;34.05;101288.50;144223;592;132905;-70
2021/08/15 05:51:12;;;;;;;;;27.00;25.75;;;;;32.24;33.50;101300.19;144244;586;131020;-67
2021/08/15 05:53:46;;;;;;;;;22.75;22.25;;;;;32.45;33.19;101296.94;144220;580;132905;-68
2021/08/15 05:56:20;;;;;;;;;21.75;19.75;;;;;32.71;32.51;101299.44;144252;564;131020;-67
2021/08/15 05:58:54;;;;;;;;;20.00;19.50;;;;;32.81;32.77;101291.09;144225;592;131016;-67
2021/08/15 06:01:28;;;;;;;;;18.25;17.75;;;;;33.07;32.08;101295.41;144255;588;131021;-68
2021/08/15 06:04:02;;;;;;;;;17.75;17.00;;;;;33.18;32.25;101300.44;144220;580;132018;-68
2021/08/15 06:06:36;;;;;;;;;18.75;17.00;;;;;33.40;31.45;101295.25;144249;586;132010;-68
2021/08/15 06:09:10;;;;;;;;;19.75;17.25;;;;;33.58;31.40;101295.78;144221;625;132012;-67
2021/08/15 06:11:44;;;;;;;;;16.50;16.25;;;;;33.70;31.50;101293.50;144248;641;132006;-68
2021/08/15 06:14:18;;;;;;;;;12.75;12.75;;;;;33.90;30.84;101299.34;144217;573;132013;-68
2021/08/15 06:16:52;;;;;;;;;19.25;18.75;;;;;34.07;30.68;101293.75;144247;625;131021;-68
2021/08/15 06:19:26;;;;;;;;;16.00;14.25;;;;;34.29;30.54;101289.25;144220;618;131905;-67
2021/08/15 06:22:00;;;;;;;;;16.75;16.00;;;;;34.45;30.59;101287.41;144253;571;132008;-67
2021/08/15 06:24:34;;;;;;;;;16.00;14.75;;;;;34.50;29.36;101285.84;144228;657;131905;-67
2021/08/15 06:27:10;;;;;;;;;14.50;13.00;;;;;34.84;28.95;101283.59;144249;621;132012;-68
2021/08/15 06:29:44;;;;;;;;;14.50;13.25;;;;;34.94;28.40;101281.44;144226;614;132010;-69
2021/08/15 06:32:18;;;;;;;;;11.25;11.00;;;;;34.30;27.97;101285.53;144243;591;132012;-68
2021/08/15 06:34:52;;;;;;;;;12.25;12.25;;;;;34.81;27.97;101275.78;144227;633;131904;-69
2021/08/15 06:37:25;;;;;;;;;12.50;12.50;;;;;35.01;27.46;101273.34;144245;647;132021;-68
2021/08/15 06:39:59;;;;;;;;;11.00;11.00;;;;;34.83;27.91;101280.03;144223;639;132012;-69
2021/08/15 06:42:33;;;;;;;;;11.25;11.25;;;;;34.99;28.24;101283.56;144242;656;132008;-71
2021/08/15 06:45:08;;;;;;;;;10.50;10.50;;;;;34.03;28.85;101273.34;144224;569;132905;-69
2021/08/15 06:47:42;;;;;;;;;10.75;10.75;;;;;34.03;28.72;101279.62;144252;566;132012;-68
2021/08/15 06:50:16;;;;;;;;;13.00;13.00;;;;;33.22;29.81;101276.44;144218;571;132905;-68
2021/08/15 06:52:50;;;;;;;;;10.50;10.25;;;;;33.40;29.81;101278.91;144249;599;132008;-68
2021/08/15 06:55:24;;;;;;;;;11.00;11.00;;;;;32.69;30.31;101284.31;144222;569;132010;-68
2021/08/15 06:57:58;;;;;;;;;12.75;12.75;;;;;32.28;31.57;101273.53;144253;623;131020;-69
2021/08/15 07:00:37;;;;;;;;;12.75;12.75;;;;;32.60;31.61;101288.06;144223;624;131907;-68
2021/08/15 07:03:17;;;;;;;;;13.75;12.50;;;;;32.30;32.94;101274.22;144252;571;131037;-67
2021/08/15 07:05:51;;;;;;;;;13.25;13.25;;;;;33.13;31.96;101286.50;144218;576;132010;-67
2021/08/15 07:08:25;;;;;;;;;15.00;13.25;;;;;33.04;32.09;101280.28;144241;801;132008;-67
2021/08/15 07:10:59;;;;;;;;;12.75;12.75;;;;;33.48;31.69;101281.56;144224;569;132018;-67
2021/08/15 07:13:33;;;;;;;;;12.00;12.00;;;;;32.39;33.55;101275.88;144246;572;132013;-69
2021/08/15 07:16:07;;;;;;;;;13.50;12.75;;;;;32.54;34.24;101278.75;144222;634;131907;-68
2021/08/15 07:18:41;;;;;;;;;14.00;14.00;;;;;32.03;35.60;101281.69;144256;593;132010;-68
2021/08/15 07:21:15;;;;;;;;;13.75;13.50;;;;;31.84;36.31;101272.88;144225;564;131907;-67
2021/08/15 07:23:49;;;;;;;;;11.75;11.75;;;;;31.10;37.42;101280.84;144252;564;131020;-69
2021/08/15 07:26:23;;;;;;;;;13.50;13.50;;;;;32.16;35.83;101271.16;144222;682;132018;-67
2021/08/15 07:28:56;;;;;;;;;12.00;12.00;;;;;32.17;35.54;101278.31;144255;610;131022;-67
2021/08/15 07:31:30;;;;;;;;;12.25;12.25;;;;;32.61;35.23;101279.72;144226;587;132010;-67
2021/08/15 07:34:04;;;;;;;;;12.50;12.50;;;;;31.84;36.79;101283.72;144237;802;132008;-67
2021/08/15 07:36:38;;;;;;;;;11.50;11.50;;;;;31.92;36.97;101284.72;144219;637;132018;-68
2021/08/15 07:39:12;;;;;;;;;12.50;11.75;;;;;32.69;35.61;101287.84;144253;641;132008;-69
2021/08/15 07:41:48;;;;;;;;;12.75;12.25;;;;;32.47;35.67;101284.03;144220;563;131907;-69
2021/08/15 07:44:23;;;;;;;;;11.00;11.00;;;;;32.38;36.12;101285.06;144255;610;131022;-69
2021/08/15 07:46:57;;;;;;;;;13.50;13.00;;;;;32.16;36.05;101286.62;144220;567;132906;-70
2021/08/15 07:49:31;;;;;;;;;13.25;12.50;;;;;31.87;36.39;101294.22;144245;606;132008;-69
2021/08/15 07:52:05;;;;;;;;;13.00;11.25;;;;;32.40;35.73;101285.75;144225;601;132010;-69
2021/08/15 07:54:39;;;;;;;;;12.75;12.00;;;;;33.01;35.17;101287.94;144252;628;131023;-70
2021/08/15 07:57:13;;;;;;;;;13.00;12.00;;;;;33.02;35.64;101287.75;144220;566;132907;-69
2021/08/15 07:59:47;;;;;;;;;13.00;13.00;;;;;32.22;36.52;101297.66;144243;597;132008;-69
2021/08/15 08:02:21;;;;;;;;;14.00;12.75;;;;;31.76;37.68;101293.75;144227;652;132020;-70
2021/08/15 08:04:54;;;;;;;;;13.00;13.00;;;;;31.83;37.33;101294.75;144250;613;131022;-69
2021/08/15 08:07:29;;;;;;;;;10.50;10.50;;;;;32.72;35.80;101287.56;144219;637;132010;-69
2021/08/15 08:10:02;;;;;;;;;12.00;11.50;;;;;32.08;36.86;101284.72;144250;588;132008;-69
2021/08/15 08:12:36;;;;;;;;;13.50;12.25;;;;;32.63;36.22;101290.44;144223;797;131874;-69
2021/08/15 08:15:11;;;;;;;;;14.50;12.00;;;;;31.61;36.84;101280.00;144247;656;132012;-69
2021/08/15 08:17:45;;;;;;;;;13.75;13.25;;;;;31.79;37.10;101279.81;144228;596;131907;-69
2021/08/15 08:20:21;;;;;;;;;12.50;12.50;;;;;33.27;34.88;101279.50;144253;571;132006;-69
2021/08/15 08:22:55;;;;;;;;;12.00;12.00;;;;;32.53;35.28;101279.75;144228;588;132010;-69
2021/08/15 08:25:29;;;;;;;;;12.00;12.00;;;;;32.50;35.60;101278.22;144240;577;132008;-69
2021/08/15 08:28:03;;;;;;;;;10.50;10.50;;;;;32.28;35.96;101278.97;144223;628;132010;-69
2021/08/15 08:30:37;;;;;;;;;13.25;13.00;;;;;32.44;35.13;101273.50;144254;643;131021;-70
2021/08/15 08:33:10;;;;;;;;;12.75;12.75;;;;;32.71;34.38;101268.69;144224;597;131906;-69
2021/08/15 08:35:44;;;;;;;;;10.75;9.00;;;;;32.81;35.15;101272.06;144250;577;131036;-71
2021/08/15 08:38:18;;;;;;;;;11.00;11.00;;;;;32.51;35.31;101268.22;144231;564;131907;-69
2021/08/15 08:40:52;;;;;;;;;13.25;12.75;;;;;33.06;32.94;101271.94;144250;582;132008;-69
2021/08/15 08:43:27;;;;;;;;;12.00;12.00;;;;;32.51;35.01;101255.47;144227;571;131907;-69
2021/08/15 08:46:02;;;;;;;;;13.25;11.75;;;;;32.45;35.08;101258.03;144254;601;131020;-69
2021/08/15 08:48:37;;;;;;;;;14.50;12.50;;;;;31.95;35.53;101252.66;144229;569;131906;-69
2021/08/15 08:51:13;;;;;;;;;13.75;13.75;;;;;32.03;34.91;101249.94;144237;625;132012;-69
2021/08/15 08:53:47;;;;;;;;;12.75;12.75;;;;;31.75;36.40;101252.16;144221;588;132010;-68
2021/08/15 08:56:24;;;;;;;;;10.75;10.75;;;;;32.52;34.52;101248.16;144251;585;131020;-69
2021/08/15 08:58:57;;;;;;;;;12.50;11.50;;;;;31.63;37.17;101250.78;144221;581;132019;-69
2021/08/15 09:01:31;;;;;;;;;12.50;12.25;;;;;32.73;34.85;101244.91;144251;566;133008;-69
2021/08/15 09:04:05;;;;;;;;;11.75;11.75;;;;;32.74;35.22;101241.16;144224;643;132907;-68
2021/08/15 09:06:39;;;;;;;;;10.50;10.50;;;;;33.00;34.94;101237.31;144258;569;132006;-68
2021/08/15 09:09:19;;;;;;;;;14.50;14.50;;;;;32.76;34.84;101233.66;144227;563;131016;-68
2021/08/15 09:11:54;;;;;;;;;11.25;11.00;;;;;32.83;34.43;101228.38;144256;569;132008;-69
2021/08/15 09:14:31;;;;;;;;;12.50;10.00;;;;;32.69;34.76;101229.94;144221;577;132016;-69
2021/08/15 09:17:10;;;;;;;;;14.00;14.00;;;;;33.15;33.59;101221.91;144239;589;132012;-69
2021/08/15 09:19:55;;;;;;;;;13.75;13.75;;;;;33.23;33.56;101227.31;144224;608;132018;-69
2021/08/15 09:22:38;;;;;;;;;9.75;9.75;;;;;33.11;33.93;101220.59;144256;665;131020;-69
2021/08/15 09:25:19;;;;;;;;;12.25;12.00;;;;;32.92;34.62;101215.56;144224;570;132010;-70
2021/08/15 09:28:02;;;;;;;;;10.00;10.00;;;;;33.01;34.40;101214.50;144246;583;132012;-69
2021/08/15 09:30:36;;;;;;;;;11.75;9.50;;;;;33.69;33.06;101204.69;144221;716;132908;-69
2021/08/15 09:33:14;;;;;;;;;10.75;10.75;;;;;33.68;34.06;101210.31;144261;581;131020;-68
2021/08/15 09:35:52;;;;;;;;;12.00;12.00;;;;;33.60;33.24;101204.94;144232;569;131017;-69
2021/08/15 09:38:26;;;;;;;;;12.75;12.00;;;;;33.11;34.06;101206.97;144254;626;132008;-69
2021/08/15 09:41:00;;;;;;;;;14.75;14.75;;;;;33.43;31.84;101206.97;144227;632;131907;-69
2021/08/15 09:43:33;;;;;;;;;11.00;10.00;;;;;33.82;32.19;101204.09;144250;596;131023;-69
2021/08/15 09:46:07;;;;;;;;;10.75;10.75;;;;;34.01;32.51;101197.28;144222;617;132906;-68
2021/08/15 09:48:42;;;;;;;;;10.75;10.00;;;;;33.33;33.31;101201.78;144255;584;131020;-69
2021/08/15 09:51:26;;;;;;;;;11.50;10.25;;;;;32.93;34.21;101195.53;144222;582;132010;-70
2021/08/15 09:54:05;;;;;;;;;14.00;14.00;;;;;33.37;33.06;101201.22;144253;642;132008;-69
2021/08/15 09:56:43;;;;;;;;;13.50;13.50;;;;;34.20;31.86;101203.19;144219;601;132018;-69
2021/08/15 09:59:39;;;;;;;;;12.50;12.00;;;;;33.78;31.98;101186.44;144251;605;132012;-70
2021/08/15 10:02:20;;;;;;;;;9.00;9.00;;;;;33.76;32.61;101185.72;144227;618;132908;-69
2021/08/15 10:04:55;;;;;;;;;13.00;13.00;;;;;35.25;29.54;101173.88;144260;566;132008;-69
2021/08/15 10:07:31;;;;;;;;;13.25;12.00;;;;;34.28;30.97;101180.47;144226;569;131020;-69
2021/08/15 10:10:05;;;;;;;;;14.50;13.00;;;;;33.23;32.60;101175.63;144246;597;132020;-69
2021/08/15 10:12:39;;;;;;;;;12.25;12.25;;;;;33.06;32.75;101187.62;144222;592;132018;-67
2021/08/15 10:15:18;;;;;;;;;11.25;11.25;;;;;34.28;30.99;101175.00;144251;731;132006;-67
2021/08/15 10:17:56;;;;;;;;;11.00;11.00;;;;;34.27;30.86;101170.59;144221;572;132011;-68
2021/08/15 10:20:33;;;;;;;;;10.75;10.75;;;;;33.68;30.92;101172.19;144247;671;132012;-68
2021/08/15 10:23:15;;;;;;;;;13.25;12.75;;;;;33.61;31.02;101161.19;144225;674;132010;-67
2021/08/15 10:25:49;;;;;;;;;16.25;15.25;;;;;33.76;30.95;101153.06;144248;570;131021;-67
2021/08/15 10:28:54;;;;;;;;;15.25;14.00;;;;;33.29;32.79;101149.59;144225;595;131907;-66
2021/08/15 10:32:06;;;;;;;;;11.00;10.25;;;;;33.04;32.33;101160.62;144255;619;131020;-67
2021/08/15 10:35:15;;;;;;;;;10.25;10.25;;;;;33.83;32.54;101145.91;144220;602;132021;-67
2021/08/15 10:37:50;;;;;;;;;11.75;11.50;;;;;33.81;32.97;101156.13;144244;593;131020;-68
2021/08/15 10:40:53;;;;;;;;;10.00;8.75;;;;;33.71;31.67;101153.62;142748;596;1458349;-69
2021/08/15 10:44:07;;;;;;;;;10.75;10.50;;;;;34.95;29.45;101146.72;144261;602;131020;-69
2021/08/15 10:47:14;;;;;;;;;11.00;11.00;;;;;33.72;31.16;101141.72;144218;575;133911;-68
2021/08/15 10:50:03;;;;;;;;;10.00;10.00;;;;;33.76;31.29;101147.62;144258;618;132010;-68
2021/08/15 10:52:42;;;;;;;;;12.00;11.75;;;;;35.02;30.30;101138.63;144223;569;132012;-69
2021/08/15 10:55:22;;;;;;;;;10.75;10.75;;;;;34.30;31.87;101138.41;144245;589;132010;-68
2021/08/15 10:57:58;;;;;;;;;11.25;10.00;;;;;33.80;32.71;101137.25;144233;713;131016;-68
2021/08/15 11:00:52;;;;;;;;;8.00;7.00;;;;;33.55;33.54;101134.75;144242;613;132014;-68
2021/08/15 11:03:36;;;;;;;;;9.50;8.00;;;;;33.12;32.91;101140.69;144229;590;132012;-67
2021/08/15 11:06:30;;;;;;;;;12.00;11.50;;;;;33.90;31.54;101138.66;144239;616;132010;-67
2021/08/15 11:09:09;;;;;;;;;10.75;10.75;;;;;33.06;33.25;101133.25;144216;586;132012;-67
2021/08/15 11:12:12;;;;;;;;;9.00;9.00;;;;;33.52;32.91;101121.50;144246;579;132010;-67
2021/08/15 11:15:25;;;;;;;;;12.00;12.00;;;;;33.23;33.72;101123.94;144230;676;131914;-68
2021/08/15 11:18:19;;;;;;;;;9.75;9.50;;;;;34.31;31.45;101126.47;144258;646;132010;-68
2021/08/15 11:20:56;;;;;;;;;10.50;10.50;;;;;34.49;30.98;101117.88;144229;607;132912;-68
2021/08/15 11:23:30;;;;;;;;;11.25;9.75;;;;;34.41;30.99;101120.72;144245;601;132008;-68
2021/08/15 11:26:17;;;;;;;;;11.50;11.50;;;;;33.82;32.23;101113.38;144238;608;132012;-68
2021/08/15 11:28:52;;;;;;;;;12.00;10.75;;;;;33.70;32.35;101115.72;144251;604;132008;-68
2021/08/15 11:31:26;;;;;;;;;15.50;13.50;;;;;33.81;31.46;101118.00;144219;575;132012;-68
2021/08/15 11:34:17;;;;;;;;;10.25;9.00;;;;;33.20;32.53;101118.00;144242;569;132014;-69
2021/08/15 11:37:06;;;;;;;;;12.25;12.00;;;;;33.02;34.73;101099.28;144222;661;132012;-69
2021/08/15 11:39:44;;;;;;;;;12.25;12.25;;;;;33.26;33.44;101097.41;144256;574;132010;-68
2021/08/15 11:42:24;;;;;;;;;9.75;9.75;;;;;32.97;33.69;101094.41;144228;601;131912;-68